Paradise, Missouri
Current Conditions -  °F | °C
As of 3:53 PM on Monday 20 Oct 2014 (Local Time) from KMCI Reporting Station
Clear Clear  
Wind Chill: 73°   Ceiling: Unl
Heat Index: 73°   Visibility: 10mi
Dew Point: 44°   Wind: 6mph
Humidity: 35%   Direction: 340°NNW
Pressure: 30.03"   Gusts: NA
Location:  39.3944°N, 94.5382°W
Report Text: KMCI 202053Z 34005KT 10SM CLR 23/07 A3003 RMK AO2 SLP163 T02280067 56012
Loading
Personal Weather Stations






























Interactive Weather Map
Tropical Storm Tracking
New forecast layout! Learn more

10-Day Weather Forecast

Advertisements
Track Severe Weather on mobile